createdAt,value
2023-04-16T00:01:16.883Z,18.15
2023-04-16T00:06:18.575Z,13.82
2023-04-16T00:11:25.181Z,14.90
2023-04-16T00:16:29.779Z,14.80
2023-04-16T00:21:31.491Z,11.25
2023-04-16T00:26:34.570Z,12.70
2023-04-16T00:31:39.375Z,13.48
2023-04-16T00:36:46.720Z,11.18
2023-04-16T00:41:53.668Z,13.75
2023-04-16T00:46:56.104Z,11.30
2023-04-16T00:52:06.725Z,12.27
2023-04-16T00:57:12.986Z,14.60
2023-04-16T01:02:18.792Z,13.70
2023-04-16T01:07:26.371Z,14.50
2023-04-16T01:12:37.513Z,15.03
2023-04-16T01:17:41.763Z,12.80
2023-04-16T01:22:46.407Z,14.85
2023-04-16T01:27:49.355Z,13.90
2023-04-16T01:32:53.237Z,16.63
2023-04-16T01:38:03.260Z,16.20
2023-04-16T01:43:04.853Z,17.55
2023-04-16T01:48:10.691Z,17.27
2023-04-16T01:53:20.780Z,17.67
2023-04-16T01:58:22.745Z,18.23
2023-04-16T02:03:27.199Z,18.35
2023-04-16T02:08:33.429Z,18.25
2023-04-16T02:13:37.057Z,18.27
2023-04-16T02:18:43.094Z,17.95
2023-04-16T02:23:46.969Z,18.77
2023-04-16T02:28:51.764Z,17.77
2023-04-16T02:34:02.388Z,19.65
2023-04-16T02:39:07.150Z,16.95
2023-04-16T02:44:08.977Z,19.10
2023-04-16T02:49:12.881Z,18.90
2023-04-16T02:54:18.750Z,21.02
2023-04-16T02:59:23.551Z,20.20
2023-04-16T03:04:25.263Z,20.02
2023-04-16T03:09:33.994Z,20.48
2023-04-16T03:14:37.114Z,17.17
2023-04-16T03:19:43.121Z,19.88
2023-04-16T03:25:05.558Z,14.77
2023-04-16T03:30:13.398Z,17.08
2023-04-16T03:35:15.074Z,15.55
2023-04-16T03:40:19.891Z,14.77
2023-04-16T03:45:30.495Z,16.27
2023-04-16T03:50:33.041Z,16.73
2023-04-16T03:55:36.645Z,19.50
2023-04-16T04:00:43.426Z,16.50
2023-04-16T04:05:48.843Z,20.70
2023-04-16T04:16:03.296Z,23.38
2023-04-16T04:21:07.702Z,20.95
2023-04-16T04:26:10.791Z,20.58
2023-04-16T04:31:12.667Z,16.42
2023-04-16T04:36:15.148Z,19.13
2023-04-16T04:41:18.740Z,19.17
2023-04-16T04:46:21.940Z,19.33
2023-04-16T04:51:24.869Z,19.00
2023-04-16T04:56:30.226Z,18.42
2023-04-16T05:01:31.900Z,19.60
2023-04-16T05:06:35.570Z,20.08
2023-04-16T05:11:42.311Z,19.05
2023-04-16T05:16:45.617Z,19.35
2023-04-16T05:21:52.357Z,18.23
2023-04-16T05:26:55.471Z,18.17
2023-04-16T05:31:57.534Z,21.48
2023-04-16T05:37:00.433Z,21.77
2023-04-16T05:42:14.873Z,22.48
2023-04-16T05:47:19.131Z,21.73
2023-04-16T05:52:23.908Z,23.75
2023-04-16T05:57:31.618Z,21.80
2023-04-16T06:02:33.582Z,23.67
2023-04-16T06:07:39.780Z,21.52
2023-04-16T06:12:44.100Z,19.35
2023-04-16T06:17:45.779Z,19.02
2023-04-16T06:22:47.744Z,19.65
2023-04-16T06:27:58.316Z,18.77
2023-04-16T06:33:00.077Z,21.20
2023-04-16T06:38:04.688Z,19.88
2023-04-16T06:43:10.517Z,20.25
2023-04-16T06:48:12.490Z,18.42
2023-04-16T06:53:17.076Z,21.00
2023-04-16T06:58:20.085Z,21.38
2023-04-16T07:03:25.556Z,21.75
2023-04-16T07:08:30.352Z,18.50
2023-04-16T07:13:33.383Z,18.35
2023-04-16T07:18:36.791Z,16.50
2023-04-16T07:23:38.753Z,16.38
2023-04-16T07:28:45.034Z,17.20
2023-04-16T07:33:49.080Z,17.98
2023-04-16T07:38:50.748Z,15.40
2023-04-16T07:43:56.496Z,15.80
2023-04-16T07:48:58.176Z,19.85
2023-04-16T07:53:59.912Z,18.40
2023-04-16T07:59:14.836Z,19.02
2023-04-16T08:04:23.557Z,19.88
2023-04-16T08:09:26.870Z,17.77
2023-04-16T08:14:30.089Z,20.33
2023-04-16T08:19:33.760Z,20.85
2023-04-16T08:24:35.837Z,22.35
2023-04-16T08:29:41.878Z,23.40
2023-04-16T08:34:45.393Z,20.63
2023-04-16T08:39:53.159Z,23.08
2023-04-16T08:45:06.090Z,23.43
2023-04-16T08:50:09.362Z,23.85
2023-04-16T08:55:15.140Z,22.75
2023-04-16T09:00:22.386Z,28.55
2023-04-16T09:05:24.702Z,23.60
2023-04-16T09:10:27.491Z,25.90
2023-04-16T09:15:34.981Z,26.15
2023-04-16T09:20:38.629Z,25.83
2023-04-16T09:25:40.368Z,22.48
2023-04-16T09:30:46.151Z,22.67
2023-04-16T09:35:48.593Z,21.95
2023-04-16T09:41:05.895Z,26.25
2023-04-16T09:46:14.226Z,23.90
2023-04-16T09:51:20.480Z,24.48
2023-04-16T09:56:26.554Z,23.58
2023-04-16T10:01:30.668Z,23.27
2023-04-16T10:06:32.647Z,24.15
2023-04-16T10:11:37.931Z,22.63
2023-04-16T10:16:44.756Z,23.55
2023-04-16T10:21:54.563Z,24.33
2023-04-16T10:26:56.494Z,21.10
2023-04-16T10:32:00.024Z,22.05
2023-04-16T10:37:09.477Z,23.35
2023-04-16T10:42:14.698Z,24.52
2023-04-16T10:47:26.312Z,24.70
2023-04-16T10:52:29.293Z,28.35
2023-04-16T10:57:32.122Z,29.88
2023-04-16T11:02:40.640Z,27.13
2023-04-16T11:07:49.420Z,33.10
2023-04-16T11:12:51.949Z,37.85
2023-04-16T11:17:57.080Z,35.63
2023-04-16T11:23:03.436Z,38.83
2023-04-16T11:28:10.113Z,35.20
2023-04-16T11:33:13.095Z,39.15
2023-04-16T11:38:18.117Z,30.98
2023-04-16T11:43:22.394Z,33.15
2023-04-16T11:48:53.112Z,29.17
2023-04-16T11:54:00.718Z,30.23
2023-04-16T11:59:16.537Z,27.87
2023-04-16T12:04:28.414Z,32.40
2023-04-16T12:09:42.344Z,33.30
2023-04-16T12:14:57.313Z,28.88
2023-04-16T12:20:03.488Z,33.13
2023-04-16T12:25:06.676Z,31.20
2023-04-16T12:30:12.175Z,32.17
2023-04-16T12:35:31.183Z,34.03
2023-04-16T12:40:33.610Z,33.05
2023-04-16T12:45:35.328Z,32.55
2023-04-16T12:50:38.835Z,33.83
2023-04-16T12:55:40.914Z,33.67
2023-04-16T13:00:45.388Z,31.92
2023-04-16T13:05:51.009Z,44.13
2023-04-16T13:10:52.764Z,28.17
2023-04-16T13:15:59.077Z,31.50
2023-04-16T13:21:05.315Z,26.95
2023-04-16T13:26:09.630Z,29.13
2023-04-16T13:31:16.588Z,36.78
2023-04-16T13:36:19.756Z,31.77
2023-04-16T13:41:25.602Z,26.27
2023-04-16T13:46:29.424Z,24.35
2023-04-16T13:51:33.109Z,27.48
2023-04-16T13:56:34.834Z,25.13
2023-04-16T14:01:45.069Z,25.48
2023-04-16T14:06:51.599Z,27.25
2023-04-16T14:11:54.418Z,28.33
2023-04-16T14:16:59.365Z,21.50
2023-04-16T14:22:08.752Z,20.40
2023-04-16T14:27:12.232Z,31.27
2023-04-16T14:32:14.391Z,20.48
2023-04-16T14:37:17.809Z,20.05
2023-04-16T14:42:21.032Z,14.82
2023-04-16T14:47:25.453Z,15.70
2023-04-16T14:52:34.098Z,15.48
2023-04-16T14:57:38.041Z,13.55
2023-04-16T15:02:39.868Z,19.85
2023-04-16T15:07:43.026Z,23.70
2023-04-16T15:12:48.110Z,20.77
2023-04-16T15:17:52.757Z,24.30
2023-04-16T15:22:58.883Z,22.17
2023-04-16T15:28:03.067Z,25.70
2023-04-16T15:33:09.426Z,19.35
2023-04-16T15:38:12.522Z,19.73
2023-04-16T15:43:17.603Z,28.73
2023-04-16T15:48:24.801Z,21.63
2023-04-16T15:53:30.615Z,18.85
2023-04-16T15:58:37.760Z,19.88
2023-04-16T16:03:39.565Z,22.33
2023-04-16T16:08:48.734Z,21.90
2023-04-16T16:13:50.730Z,21.02
2023-04-16T16:18:55.029Z,21.85
2023-04-16T16:24:05.672Z,17.95
2023-04-16T16:29:17.793Z,17.40
2023-04-16T16:34:23.567Z,17.20
2023-04-16T16:39:28.505Z,16.88
2023-04-16T16:44:32.011Z,13.52
2023-04-16T16:49:36.724Z,15.88
2023-04-16T16:54:44.945Z,15.23
2023-04-16T16:59:48.673Z,16.30
2023-04-16T17:04:52.486Z,17.38
2023-04-16T17:09:56.832Z,17.98
2023-04-16T17:15:04.778Z,17.65
2023-04-16T17:20:07.789Z,17.73
2023-04-16T17:25:14.192Z,20.02
2023-04-16T17:30:17.785Z,18.92
2023-04-16T17:35:24.196Z,18.00
2023-04-16T17:40:27.398Z,18.52
2023-04-16T17:45:31.579Z,19.67
2023-04-16T17:50:38.960Z,19.23
2023-04-16T17:55:54.537Z,16.75
2023-04-16T18:00:57.818Z,18.98
2023-04-16T18:06:01.946Z,17.73
2023-04-16T18:11:08.382Z,19.08
2023-04-16T18:16:14.119Z,18.73
2023-04-16T18:21:20.955Z,17.38
2023-04-16T18:26:29.912Z,18.23
2023-04-16T18:31:34.364Z,21.75
2023-04-16T18:36:36.167Z,21.58
2023-04-16T18:41:45.200Z,22.90
2023-04-16T18:46:52.863Z,21.98
2023-04-16T18:52:00.501Z,19.80
2023-04-16T18:57:08.148Z,22.57
2023-04-16T19:02:09.864Z,18.40
2023-04-16T19:07:13.701Z,24.73
2023-04-16T19:12:19.957Z,23.50
2023-04-16T19:17:25.452Z,24.83
2023-04-16T19:22:33.840Z,25.58
2023-04-16T19:27:40.329Z,25.13
2023-04-16T19:32:56.036Z,25.00
2023-04-16T19:38:02.790Z,18.13
2023-04-16T19:43:05.967Z,26.52
2023-04-16T19:48:22.628Z,29.73
2023-04-16T19:53:24.352Z,23.58
2023-04-16T19:58:32.465Z,22.05
2023-04-16T20:03:36.159Z,21.90
2023-04-16T20:08:40.218Z,25.92
2023-04-16T20:13:46.044Z,21.13
2023-04-16T20:18:47.738Z,26.70
2023-04-16T20:23:49.526Z,24.75
2023-04-16T20:28:57.289Z,24.35
2023-04-16T20:34:02.610Z,26.83
2023-04-16T20:39:06.722Z,25.75
2023-04-16T20:44:11.412Z,27.42
2023-04-16T20:49:20.286Z,25.73
2023-04-16T20:54:27.672Z,29.50
2023-04-16T20:59:37.801Z,24.65
2023-04-16T21:04:45.176Z,24.15
2023-04-16T21:09:47.006Z,25.75
2023-04-16T21:14:54.948Z,26.48
2023-04-16T21:20:05.774Z,28.15
2023-04-16T21:25:09.048Z,23.80
2023-04-16T21:30:15.448Z,26.85
2023-04-16T21:35:18.788Z,27.60
2023-04-16T21:40:22.627Z,23.20
2023-04-16T21:45:25.699Z,23.27
2023-04-16T21:50:32.452Z,23.55
2023-04-16T21:55:34.078Z,23.40
2023-04-16T22:00:43.736Z,23.65
2023-04-16T22:05:51.120Z,25.63
2023-04-16T22:10:56.654Z,23.50
2023-04-16T22:16:00.127Z,24.98
2023-04-16T22:21:10.825Z,23.70
2023-04-16T22:26:14.162Z,26.20
2023-04-16T22:31:21.949Z,27.33
2023-04-16T22:36:29.307Z,25.73
2023-04-16T22:41:30.954Z,26.23
2023-04-16T22:46:42.754Z,26.73
2023-04-16T22:51:51.471Z,28.58
2023-04-16T22:56:53.092Z,30.58
2023-04-16T23:01:56.145Z,31.52
2023-04-16T23:07:00.833Z,34.28
2023-04-16T23:12:04.367Z,32.55
2023-04-16T23:17:07.566Z,30.33
2023-04-16T23:22:14.578Z,33.25
2023-04-16T23:27:19.854Z,30.27
2023-04-16T23:32:28.777Z,29.23
2023-04-16T23:37:30.506Z,30.58
2023-04-16T23:42:33.842Z,33.78
2023-04-16T23:47:46.195Z,33.60
2023-04-16T23:52:49.906Z,37.20
2023-04-16T23:57:51.500Z,34.08
